Time;durP1;ratioP1;P1;durP2;ratioP2;P2;SDS_P1;SDS_P2;PMS_P1;PMS_P2;Temp;Humidity;BMP_temperature;BMP_pressure;BME280_temperature;BME280_humidity;BME280_pressure;Samples;Min_cycle;Max_cycle;Signal;HPM_P1;HPM_P2
2023/01/13 00:01:13;;;;;;;21.60;2.30;;;;;;;21.98;62.75;98657.47;7304076;19;130174;-40
2023/01/13 00:03:39;;;;;;;28.58;2.67;;;;;;;21.91;62.04;98640.00;7305215;19;129852;-39
2023/01/13 00:06:05;;;;;;;34.33;3.53;;;;;;;22.04;62.27;98663.03;7305273;19;129437;-39
2023/01/13 00:08:31;;;;;;;31.50;2.88;;;;;;;22.06;61.89;98661.91;7306642;19;129526;-39
2023/01/13 00:10:56;;;;;;;14.68;1.55;;;;;;;22.07;62.09;98653.06;7305738;19;129272;-41
2023/01/13 00:13:25;;;;;;;40.10;3.47;;;;;;;22.05;62.02;98648.97;7305096;19;130322;-39
2023/01/13 00:15:58;;;;;;;28.63;2.83;;;;;;;22.11;63.04;98650.94;7304640;19;130940;-36
2023/01/13 00:18:24;;;;;;;27.58;2.70;;;;;;;22.15;61.46;98652.25;7306847;19;129633;-37
2023/01/13 00:21:04;;;;;;;27.23;2.60;;;;;;;22.16;63.08;98649.47;7305692;19;130065;-39
2023/01/13 00:23:31;;;;;;;27.70;2.50;;;;;;;22.15;61.82;98645.19;7304993;19;131281;-38
2023/01/13 00:26:02;;;;;;;34.85;3.47;;;;;;;22.15;62.67;98639.16;7304477;19;130513;-37
2023/01/13 00:28:27;;;;;;;34.03;3.08;;;;;;;22.17;61.09;98631.94;7306245;19;129515;-40
2023/01/13 00:30:57;;;;;;;19.10;2.17;;;;;;;22.20;61.10;98649.91;7304724;19;129559;-39
2023/01/13 00:33:23;;;;;;;25.75;2.42;;;;;;;22.18;61.49;98638.81;7304762;19;130590;-41
2023/01/13 00:35:59;;;;;;;24.40;2.40;;;;;;;22.16;62.32;98630.31;7305037;19;130056;-39
2023/01/13 00:38:24;;;;;;;35.65;3.35;;;;;;;22.17;60.85;98638.00;7303754;19;129255;-39
2023/01/13 00:41:05;;;;;;;31.30;2.88;;;;;;;22.17;62.32;98629.31;7304510;19;129128;-38
2023/01/13 00:43:31;;;;;;;30.70;2.97;;;;;;;22.17;61.83;98629.31;7303714;19;130589;-40
2023/01/13 00:45:57;;;;;;;20.90;2.17;;;;;;;22.13;61.24;98625.41;7303123;19;129436;-39
2023/01/13 00:48:24;;;;;;;24.05;2.42;;;;;;;22.17;61.46;98629.31;7304870;19;129623;-38
2023/01/13 00:50:58;;;;;;;21.83;2.15;;;;;;;22.08;62.64;98617.22;7303313;19;129938;-38
2023/01/13 00:53:24;;;;;;;26.65;2.63;;;;;;;22.14;61.15;98629.66;7304013;19;129281;-38
2023/01/13 00:56:00;;;;;;;30.07;3.07;;;;;;;22.15;62.47;98623.44;7303007;19;129480;-40
2023/01/13 00:58:26;;;;;;;23.95;2.40;;;;;;;22.15;60.77;98628.69;7304575;19;129249;-38
2023/01/13 01:00:51;;;;;;;33.03;3.10;;;;;;;22.15;61.15;98639.16;7303756;19;129822;-38
2023/01/13 01:03:17;;;;;;;31.93;3.03;;;;;;;22.13;61.58;98630.66;7302762;19;129809;-39
2023/01/13 01:05:42;;;;;;;24.15;2.30;;;;;;;22.14;61.56;98621.78;7305225;19;129751;-40
2023/01/13 01:08:07;;;;;;;29.40;2.90;;;;;;;22.11;61.50;98633.44;7304392;19;129421;-38
2023/01/13 01:10:33;;;;;;;33.55;3.40;;;;;;;22.02;61.12;98612.63;7303733;19;130164;-40
2023/01/13 01:12:58;;;;;;;18.90;1.88;;;;;;;22.12;60.65;98629.81;7304555;19;129573;-36
2023/01/13 01:15:24;;;;;;;35.60;3.50;;;;;;;22.12;60.96;98636.84;7309696;19;129254;-40
2023/01/13 01:17:49;;;;;;;24.42;2.53;;;;;;;22.13;61.18;98628.03;7311060;19;129670;-38
2023/01/13 01:20:14;;;;;;;20.58;2.05;;;;;;;22.11;61.65;98627.38;7310805;19;129814;-38
2023/01/13 01:22:40;;;;;;;25.00;2.40;;;;;;;22.12;61.21;98634.22;7308997;19;131144;-39
2023/01/13 01:25:06;;;;;;;31.27;3.60;;;;;;;22.11;61.77;98632.59;7307635;19;129220;-39
2023/01/13 01:27:31;;;;;;;31.90;2.93;;;;;;;22.12;60.90;98634.22;7310058;19;129184;-39
2023/01/13 01:29:56;;;;;;;42.67;4.05;;;;;;;22.12;61.36;98629.00;7310266;19;129843;-37
2023/01/13 01:32:22;;;;;;;32.90;3.00;;;;;;;22.11;61.59;98632.59;7308126;19;129826;-39
2023/01/13 01:34:47;;;;;;;27.80;2.63;;;;;;;22.02;61.21;98612.63;7310768;19;129081;-37
2023/01/13 01:37:12;;;;;;;25.97;2.47;;;;;;;22.08;61.64;98622.47;7309952;19;129482;-38
2023/01/13 01:39:38;;;;;;;32.30;3.33;;;;;;;22.11;61.25;98616.91;7309623;19;129636;-40
2023/01/13 01:44:57;;;;;;;28.67;2.63;;;;;;;22.08;62.30;98623.25;7310280;19;129767;-38
2023/01/13 01:47:24;;;;;;;25.30;2.35;;;;;;;22.07;60.64;98618.19;7308333;19;129489;-41
2023/01/13 01:49:50;;;;;;;27.05;2.50;;;;;;;22.07;61.24;98626.06;7310064;19;129514;-39
2023/01/13 01:52:24;;;;;;;39.70;3.73;;;;;;;22.06;62.04;98627.88;7305441;19;129649;-37
2023/01/13 01:54:59;;;;;;;32.53;3.17;;;;;;;22.07;62.55;98623.44;7309670;19;128955;-35
2023/01/13 01:57:48;;;;;;;30.70;2.80;;;;;;;22.05;62.96;98612.34;7308953;19;129254;-40
2023/01/13 02:00:14;;;;;;;28.58;2.83;;;;;;;22.04;61.46;98614.13;7310560;19;129406;-39
2023/01/13 02:02:42;;;;;;;31.87;3.13;;;;;;;22.07;61.27;98616.41;7306159;19;130417;-39
2023/01/13 02:05:09;;;;;;;32.92;3.40;;;;;;;22.04;61.43;98605.44;7307426;19;129681;-37
2023/01/13 02:07:36;;;;;;;;;;;;;;;22.07;62.37;98605.09;7309660;19;129610;-37
2023/01/13 02:10:05;;;;;;;35.80;3.28;;;;;;;22.06;61.25;98611.34;7309857;19;129822;-38
2023/01/13 02:12:31;;;;;;;29.80;2.67;;;;;;;22.04;61.71;98608.06;7306858;19;130539;-39
2023/01/13 02:14:59;;;;;;;31.43;2.83;;;;;;;22.04;61.51;98600.22;7310136;19;129683;-38
2023/01/13 02:17:44;;;;;;;27.15;2.72;;;;;;;22.02;62.64;98597.75;7307359;19;129232;-38
2023/01/13 02:20:47;;;;;;;34.42;3.20;;;;;;;22.00;63.03;98593.69;7307054;19;131186;-40
2023/01/13 02:26:40;;;;;;;29.42;2.83;;;;;;;21.98;62.27;98598.28;7309882;19;129158;-40
2023/01/13 02:32:18;;;;;;;31.80;3.10;;;;;;;21.98;62.81;98579.94;7307569;19;129459;-40
2023/01/13 02:34:54;;;;;;;25.85;2.47;;;;;;;21.96;61.95;98580.91;7307423;19;129914;-39
2023/01/13 02:37:28;;;;;;;24.00;2.30;;;;;;;21.94;62.29;98580.28;7308927;19;128998;-39
2023/01/13 02:39:58;;;;;;;28.25;2.70;;;;;;;21.94;61.81;98569.00;7307711;19;129664;-38
2023/01/13 02:45:36;;;;;;;45.65;4.88;;;;;;;21.95;62.91;98566.22;7307006;19;129280;-37
2023/01/13 02:48:05;;;;;;;41.30;3.75;;;;;;;21.95;61.30;98571.44;7308206;19;129485;-33
2023/01/13 02:50:39;;;;;;;28.25;2.70;;;;;;;21.93;62.46;98562.94;7309474;19;129090;-38
2023/01/13 02:53:15;;;;;;;27.92;2.63;;;;;;;21.84;62.48;98545.63;7307842;19;130690;-37
2023/01/13 02:55:45;;;;;;;26.48;2.67;;;;;;;21.93;61.94;98562.13;7307421;19;130442;-39
2023/01/13 02:58:15;;;;;;;27.70;2.60;;;;;;;21.93;61.61;98549.06;7308720;19;129796;-39
2023/01/13 03:00:43;;;;;;;32.40;3.38;;;;;;;21.94;61.16;98556.75;7305776;19;129605;-38
2023/01/13 03:03:08;;;;;;;29.73;3.25;;;;;;;21.85;60.50;98549.88;7306550;19;129464;-38
2023/01/13 03:05:35;;;;;;;21.60;2.15;;;;;;;21.90;61.23;98550.19;7304043;19;129516;-37
2023/01/13 03:08:03;;;;;;;;;;;;;;;21.93;62.47;98557.69;7308431;19;129218;-38
2023/01/13 03:10:39;;;;;;;29.58;2.83;;;;;;;21.88;62.80;98549.53;7307069;19;129675;-38
2023/01/13 03:13:29;;;;;;;31.50;2.95;;;;;;;21.89;63.18;98551.19;7307423;19;129359;-35
2023/01/13 03:15:57;;;;;;;32.97;2.97;;;;;;;21.87;62.34;98558.38;7307188;19;129724;-34
2023/01/13 03:19:20;;;;;;;25.13;2.40;;;;;;;21.89;63.02;98552.97;7308192;19;129696;-37
2023/01/13 03:22:04;;;;;;;37.85;3.72;;;;;;;21.86;62.50;98556.75;7303585;19;129421;-38
2023/01/13 03:24:37;;;;;;;33.42;3.20;;;;;;;21.89;61.84;98553.81;7304779;19;129549;-40
2023/01/13 03:27:14;;;;;;;32.63;3.30;;;;;;;21.87;62.75;98558.38;7307230;19;130395;-39
2023/01/13 03:29:49;;;;;;;25.88;2.53;;;;;;;21.88;62.51;98554.78;7305188;19;129003;-37
2023/01/13 03:32:26;;;;;;;23.17;2.50;;;;;;;21.88;62.25;98553.97;7304958;19;129185;-38
2023/01/13 03:35:07;;;;;;;32.60;3.00;;;;;;;21.89;62.78;98551.19;7306757;19;129988;-40
2023/01/13 03:37:39;;;;;;;22.77;2.17;;;;;;;21.83;62.07;98541.38;7304168;19;129636;-38
2023/01/13 03:40:12;;;;;;;35.35;3.17;;;;;;;21.87;62.00;98547.91;7306963;19;129358;-40
2023/01/13 03:44:20;;;;;;;23.27;2.53;;;;;;;21.84;61.11;98548.25;7303464;19;129580;-39
2023/01/13 03:45:30;;;;;;;33.60;3.13;;;;;;;21.87;61.09;98547.91;7302785;19;129897;-38
2023/01/13 03:47:59;;;;;;;32.88;3.05;;;;;;;21.87;61.43;98553.16;7305734;19;129578;-35
2023/01/13 03:50:33;;;;;;;32.42;3.08;;;;;;;21.84;62.39;98552.66;7306571;19;129680;-39
2023/01/13 03:53:05;;;;;;;38.22;3.60;;;;;;;21.83;61.61;98551.84;7305179;19;129305;-38
2023/01/13 03:55:34;;;;;;;35.13;3.15;;;;;;;21.83;62.21;98549.22;7304497;19;129751;-39
2023/01/13 03:58:13;;;;;;;35.42;3.15;;;;;;;21.85;61.35;98533.34;7306303;19;130135;-39
2023/01/13 04:00:57;;;;;;;34.72;3.17;;;;;;;21.86;62.17;98546.28;7305764;19;129760;-36
2023/01/13 04:03:28;;;;;;;32.67;3.10;;;;;;;21.85;62.28;98546.44;7305605;19;129019;-38
2023/01/13 04:06:03;;;;;;;28.52;2.58;;;;;;;21.83;62.42;98551.84;7302744;19;129925;-40
2023/01/13 04:08:29;;;;;;;18.65;1.88;;;;;;;21.79;61.72;98534.03;7306665;19;129782;-38
2023/01/13 04:10:57;;;;;;;;;;;;;;;21.91;62.60;98543.97;7306994;19;129386;-40
2023/01/13 04:13:25;;;;;;;;;;;;;;;21.90;62.43;98542.34;7306047;19;129597;-39
2023/01/13 04:15:51;;;;;;;37.72;3.55;;;;;;;21.86;61.01;98537.63;7304720;19;129425;-34
2023/01/13 04:18:22;;;;;;;23.60;2.22;;;;;;;21.84;62.43;98542.19;7305743;19;130548;-40
2023/01/13 04:20:50;;;;;;;26.15;2.47;;;;;;;21.83;61.48;98545.81;7306057;19;129152;-39
2023/01/13 04:23:16;;;;;;;43.78;4.07;;;;;;;21.82;60.94;98544.97;7305322;19;129389;-37
2023/01/13 04:25:43;;;;;;;27.95;2.83;;;;;;;21.82;61.38;98547.59;7302582;19;128924;-38
2023/01/13 04:28:09;;;;;;;25.52;2.45;;;;;;;21.81;61.08;98547.75;7305136;19;129895;-40
2023/01/13 04:30:36;;;;;;;24.80;2.42;;;;;;;21.81;61.36;98542.53;7304812;19;129293;-39
2023/01/13 04:33:03;;;;;;;29.10;2.72;;;;;;;21.79;61.10;98542.69;7305588;19;129375;-38
2023/01/13 04:35:28;;;;;;;;;;;;;;;21.80;62.56;98544.31;7305418;19;131031;-39
2023/01/13 04:37:54;;;;;;;30.77;2.90;;;;;;;21.74;61.51;98546.75;7304827;19;130034;-39
2023/01/13 04:40:19;;;;;;;25.25;2.38;;;;;;;21.59;61.70;98538.75;7305932;19;129500;-38
2023/01/13 04:42:45;;;;;;;27.20;2.63;;;;;;;21.63;60.99;98547.94;7301070;19;129812;-38
2023/01/13 04:45:11;;;;;;;58.67;6.40;;;;;;;21.73;61.13;98537.28;7297632;19;130458;-39
2023/01/13 04:47:37;;;;;;;27.35;2.42;;;;;;;21.86;61.20;98545.47;7302573;19;129445;-38
2023/01/13 04:50:03;;;;;;;60.03;5.33;;;;;;;21.97;60.08;98529.41;7308156;19;131191;-37
2023/01/13 04:52:28;;;;;;;34.50;3.07;;;;;;;22.01;60.81;98537.75;7309087;19;129658;-38
2023/01/13 04:54:54;;;;;;;52.00;5.13;;;;;;;22.06;60.54;98532.81;7310301;19;129601;-39
2023/01/13 04:57:19;;;;;;;25.73;2.50;;;;;;;22.12;59.63;98537.38;7310387;19;130562;-39
2023/01/13 04:59:44;;;;;;;37.90;3.70;;;;;;;22.20;59.84;98539.97;7311137;19;129468;-38
2023/01/13 05:02:13;;;;;;;43.35;3.95;;;;;;;22.21;59.46;98534.56;7305281;19;129438;-39
2023/01/13 05:04:39;;;;;;;28.23;2.63;;;;;;;22.35;59.48;98546.13;7309997;19;129215;-37
2023/01/13 05:07:05;;;;;;;35.70;3.27;;;;;;;22.31;59.91;98540.44;7306150;19;130348;-37
2023/01/13 05:09:30;;;;;;;24.88;2.30;;;;;;;22.39;59.19;98534.34;7309831;19;129682;-39
2023/01/13 05:17:24;;;;;;;31.15;3.03;;;;;;;22.51;58.87;98530.34;7309399;19;130165;-38
2023/01/13 05:19:50;;;;;;;28.05;2.58;;;;;;;22.59;58.49;98532.97;7310486;19;129490;-39
2023/01/13 05:27:43;;;;;;;22.92;2.08;;;;;;;22.62;58.68;98522.13;7311333;19;129902;-38
2023/01/13 05:30:09;;;;;;;40.67;3.70;;;;;;;22.79;58.48;98544.66;7310976;19;129237;-41
2023/01/13 05:32:34;;;;;;;29.10;2.63;;;;;;;22.85;57.91;98549.19;7309133;19;129384;-39
2023/01/13 05:35:00;;;;;;;32.87;3.53;;;;;;;22.81;58.11;98532.16;7305904;19;131139;-38
2023/01/13 05:37:26;;;;;;;25.73;2.43;;;;;;;22.85;58.24;98531.66;7308232;19;129378;-39
2023/01/13 05:45:20;;;;;;;48.72;4.63;;;;;;;22.70;58.52;98525.53;7305835;19;130197;-38
2023/01/13 05:47:45;;;;;;;34.47;3.23;;;;;;;22.60;59.09;98521.50;7310236;19;131056;-40
2023/01/13 05:50:11;;;;;;;19.37;1.90;;;;;;;22.48;59.50;98525.44;7309693;19;129676;-38
2023/01/13 05:52:36;;;;;;;34.53;3.40;;;;;;;22.44;59.15;98518.94;7304666;19;129616;-38
2023/01/13 05:55:02;;;;;;;42.55;4.57;;;;;;;22.36;59.50;98532.06;7305653;19;131597;-41
2023/01/13 05:57:27;;;;;;;43.87;4.70;;;;;;;22.27;60.03;98533.06;7307890;19;130431;-41
2023/01/13 05:59:53;;;;;;;25.63;2.45;;;;;;;22.24;59.79;98533.41;7305454;19;130109;-38
2023/01/13 06:02:18;;;;;;;45.43;4.77;;;;;;;22.17;59.81;98542.91;7304416;19;129511;-38
2023/01/13 06:04:44;;;;;;;30.77;2.83;;;;;;;22.04;60.05;98534.78;7307917;19;130136;-40
2023/01/13 06:07:09;;;;;;;27.90;2.77;;;;;;;22.03;60.93;98546.25;7307925;19;129201;-38
2023/01/13 06:09:34;;;;;;;51.25;5.60;;;;;;;22.03;60.51;98543.63;7301386;19;130761;-39
2023/01/13 06:12:00;;;;;;;80.88;9.23;;;;;;;22.05;60.33;98545.09;7288144;19;130795;-40
2023/01/13 06:14:38;;;;;;;24.97;2.33;;;;;;;22.11;60.72;98543.59;7296765;19;130230;-37
2023/01/13 06:17:07;;;;;;;37.67;3.45;;;;;;;22.12;60.85;98548.66;7305185;19;130522;-40
2023/01/13 06:19:32;;;;;;;27.60;2.45;;;;;;;22.20;60.26;98543.41;7308329;19;129518;-38
2023/01/13 06:21:57;;;;;;;33.83;3.33;;;;;;;22.28;59.95;98547.81;7303734;19;129341;-35
2023/01/13 06:24:23;;;;;;;36.33;3.50;;;;;;;22.33;59.90;98548.13;7306400;19;130151;-39
2023/01/13 06:26:48;;;;;;;27.73;2.65;;;;;;;22.35;59.76;98546.94;7307285;19;130751;-40
2023/01/13 06:29:15;;;;;;;24.80;2.55;;;;;;;22.43;59.40;98544.28;7306561;19;129504;-38
2023/01/13 06:31:41;;;;;;;41.17;3.65;;;;;;;22.49;59.35;98550.66;7300653;19;130450;-38
2023/01/13 06:34:12;;;;;;;29.23;2.70;;;;;;;22.45;57.01;98536.25;7305614;19;130126;-37
2023/01/13 06:36:46;;;;;;;34.33;3.38;;;;;;;22.69;56.85;98549.28;7306388;19;130393;-36
2023/01/13 06:39:17;;;;;;;32.38;2.85;;;;;;;22.76;56.67;98547.59;7308024;19;130184;-41
2023/01/13 06:44:27;;;;;;;43.03;4.82;;;;;;;22.55;57.40;98542.13;7300016;19;130050;-37
2023/01/13 06:46:53;;;;;;;45.37;4.43;;;;;;;22.60;57.78;98556.38;7302193;19;129404;-36
2023/01/13 06:49:18;;;;;;;39.40;3.67;;;;;;;22.58;58.57;98554.91;7295934;19;130247;-36
2023/01/13 06:51:43;;;;;;;26.60;2.87;;;;;;;22.58;58.51;98552.28;7300827;19;129915;-39
2023/01/13 06:54:09;;;;;;;28.98;2.88;;;;;;;22.60;58.60;98555.53;7303015;19;130486;-37
2023/01/13 06:56:34;;;;;;;55.35;5.35;;;;;;;22.59;58.61;98538.22;7302018;19;129747;-39
2023/01/13 06:58:59;;;;;;;30.50;2.90;;;;;;;22.75;58.35;98554.66;7301863;19;129738;-38
2023/01/13 07:01:25;;;;;;;55.63;5.90;;;;;;;22.74;57.54;98529.44;7300299;19;129392;-36
2023/01/13 07:03:50;;;;;;;31.20;3.25;;;;;;;22.89;58.06;98548.66;7302629;19;130353;-39
2023/01/13 07:06:15;;;;;;;37.13;3.77;;;;;;;22.87;57.52;98536.75;7300606;19;129608;-40
2023/01/13 07:08:44;;;;;;;24.92;2.65;;;;;;;23.04;57.06;98553.97;7302316;19;130126;-37
2023/01/13 07:11:09;;;;;;;33.93;3.57;;;;;;;23.07;57.12;98553.66;7300173;19;129169;-36
2023/01/13 07:16:19;;;;;;;30.95;3.10;;;;;;;23.24;56.78;98552.53;7302592;19;129597;-37
2023/01/13 07:18:44;;;;;;;37.10;3.90;;;;;;;23.24;57.29;98558.59;7304618;19;129585;-40
2023/01/13 07:21:12;;;;;;;41.55;4.03;;;;;;;23.31;56.77;98553.50;7301004;19;129383;-40
2023/01/13 07:23:39;;;;;;;32.25;3.40;;;;;;;23.37;56.10;98550.16;7302138;19;131541;-38
2023/01/13 07:26:06;;;;;;;33.30;3.33;;;;;;;23.41;56.88;98540.97;7298747;19;129862;-38
2023/01/13 07:28:32;;;;;;;36.15;3.65;;;;;;;23.40;56.99;98541.97;7302359;19;130148;-36
2023/01/13 07:30:58;;;;;;;19.50;2.13;;;;;;;23.37;56.53;98547.53;7303945;19;129243;-39
2023/01/13 07:33:24;;;;;;;28.90;2.93;;;;;;;23.34;56.99;98554.97;7300030;19;130396;-39
2023/01/13 07:35:57;;;;;;;34.00;3.40;;;;;;;23.20;57.28;98561.75;7300804;19;130915;-39
2023/01/13 07:38:22;;;;;;;49.78;4.90;;;;;;;23.15;57.26;98558.84;7301872;19;129117;-36
2023/01/13 07:40:48;;;;;;;30.60;3.37;;;;;;;23.05;57.73;98555.63;7300984;19;131814;-38
2023/01/13 07:43:31;;;;;;;36.50;3.80;;;;;;;22.94;58.32;98546.34;7292447;19;130485;-37
2023/01/13 07:45:58;;;;;;;36.90;3.90;;;;;;;22.88;58.68;98546.22;7298065;19;130352;-41
2023/01/13 07:48:25;;;;;;;152.52;19.25;;;;;;;22.88;57.97;98554.09;7292371;19;132543;-35
2023/01/13 07:50:50;;;;;;;43.05;4.00;;;;;;;22.89;58.26;98556.53;7300965;19;129024;-38
2023/01/13 07:53:15;;;;;;;66.13;8.17;;;;;;;22.94;58.19;98558.66;7300411;19;129952;-38
2023/01/13 07:55:42;;;;;;;34.67;3.60;;;;;;;23.03;57.52;98560.22;7295225;19;129796;-37
2023/01/13 07:58:10;;;;;;;40.53;4.03;;;;;;;23.07;57.16;98564.13;7302858;19;129299;-38
2023/01/13 08:00:36;;;;;;;32.58;3.30;;;;;;;23.14;57.73;98563.25;7298588;19;129122;-38
2023/01/13 08:03:02;;;;;;;36.13;3.47;;;;;;;23.16;57.94;98570.94;7299268;19;132288;-38
2023/01/13 08:05:27;;;;;;;24.20;2.40;;;;;;;23.23;57.19;98569.25;7298421;19;130174;-39
2023/01/13 08:07:53;;;;;;;59.00;5.40;;;;;;;23.32;57.15;98557.72;7302144;19;129075;-37
2023/01/13 08:10:18;;;;;;;31.03;3.13;;;;;;;23.39;56.70;98563.13;7297311;19;131585;-39
2023/01/13 08:15:28;;;;;;;35.33;3.58;;;;;;;23.49;56.77;98556.63;7302458;19;129611;-35
2023/01/13 08:17:54;;;;;;;84.40;9.55;;;;;;;23.52;56.10;98558.88;7298026;19;129279;-36
2023/01/13 08:20:19;;;;;;;25.33;2.57;;;;;;;23.57;56.38;98561.78;7290766;19;130101;-38
2023/01/13 08:22:45;;;;;;;21.13;2.30;;;;;;;23.55;56.86;98555.91;7301348;19;129569;-38
2023/01/13 08:25:10;;;;;;;35.07;4.37;;;;;;;23.52;56.84;98553.63;7300656;19;130270;-40
2023/01/13 08:27:35;;;;;;;38.50;3.60;;;;;;;23.44;56.34;98556.34;7309465;19;129453;-38
2023/01/13 08:30:01;;;;;;;39.90;3.90;;;;;;;23.22;56.78;98541.41;7309374;19;128986;-39
2023/01/13 08:32:26;;;;;;;42.80;4.03;;;;;;;23.19;57.25;98553.06;7306290;19;131131;-36
2023/01/13 08:34:51;;;;;;;22.80;2.23;;;;;;;23.14;57.68;98549.31;7308743;19;129590;-40
2023/01/13 08:37:17;;;;;;;34.53;3.27;;;;;;;23.00;58.30;98550.09;7308633;19;129429;-40
2023/01/13 08:39:42;;;;;;;27.13;2.53;;;;;;;22.94;58.55;98548.97;7310470;19;129763;-40
2023/01/13 08:42:08;;;;;;;31.27;3.17;;;;;;;22.97;58.08;98558.31;7307226;19;131176;-40
2023/01/13 08:44:33;;;;;;;16.10;1.77;;;;;;;22.90;57.75;98541.63;7309265;19;130416;-37
2023/01/13 08:46:58;;;;;;;45.80;4.27;;;;;;;23.01;58.61;98559.56;7307112;19;129347;-38
2023/01/13 08:49:24;;;;;;;30.47;2.93;;;;;;;23.06;58.09;98559.88;7308445;19;130197;-38
2023/01/13 08:51:51;;;;;;;31.52;3.45;;;;;;;23.17;58.22;98562.09;7307102;19;130154;-40
2023/01/13 08:54:17;;;;;;;27.17;2.90;;;;;;;23.23;57.60;98558.78;7303635;19;129811;-40
2023/01/13 08:56:44;;;;;;;39.00;4.00;;;;;;;23.33;57.23;98559.38;7305077;19;130483;-36
2023/01/13 08:59:14;;;;;;;29.48;3.08;;;;;;;23.35;57.55;98552.16;7308675;19;129456;-39
2023/01/13 09:01:40;;;;;;;26.55;2.65;;;;;;;23.41;57.07;98554.06;7306422;19;129455;-39
2023/01/13 09:04:18;;;;;;;31.70;3.23;;;;;;;23.46;56.57;98564.84;7307925;19;131541;-37
2023/01/13 09:06:44;;;;;;;31.67;3.17;;;;;;;23.55;56.90;98574.28;7304691;19;129241;-39
2023/01/13 09:09:09;;;;;;;42.87;3.97;;;;;;;23.38;54.73;98578.03;7308373;19;129246;-40
2023/01/13 09:14:26;;;;;;;25.50;2.55;;;;;;;23.59;54.81;98574.75;7310847;19;129597;-36
2023/01/13 09:16:52;;;;;;;42.05;4.35;;;;;;;23.54;54.79;98580.53;7306777;19;130409;-38
2023/01/13 09:19:17;;;;;;;34.07;3.47;;;;;;;23.49;55.00;98575.00;7308798;19;129737;-39
2023/01/13 09:21:43;;;;;;;28.93;2.93;;;;;;;23.32;55.69;98662.66;7307942;19;129078;-38
2023/01/13 09:24:08;;;;;;;31.30;2.97;;;;;;;23.35;55.85;98685.94;7299343;19;131560;-37
2023/01/13 09:26:33;;;;;;;17.50;2.13;;;;;;;23.26;56.39;98689.53;7303136;19;129269;-37
2023/01/13 09:28:59;;;;;;;43.30;4.63;;;;;;;23.14;56.86;98693.53;7306088;19;129754;-39
2023/01/13 09:31:24;;;;;;;36.00;3.43;;;;;;;23.11;57.34;98696.50;7305467;19;130468;-37
2023/01/13 09:36:33;;;;;;;31.33;3.10;;;;;;;23.08;57.48;98696.84;7306980;19;128836;-39
2023/01/13 09:38:59;;;;;;;26.77;3.43;;;;;;;23.12;57.78;98692.91;7306074;19;129397;-38
2023/01/13 09:44:18;;;;;;;38.03;3.70;;;;;;;23.26;56.96;98686.91;7305887;19;129643;-37
2023/01/13 09:46:51;;;;;;;42.53;4.55;;;;;;;23.31;56.94;98696.91;7301685;19;130831;-37
2023/01/13 09:49:21;;;;;;;35.60;3.70;;;;;;;23.36;56.53;98687.56;7306611;19;129364;-38
2023/01/13 09:52:18;;;;;;;24.77;2.63;;;;;;;23.45;56.60;98704.91;7297366;19;131869;-41
2023/01/13 09:55:13;;;;;;;33.17;3.50;;;;;;;23.50;56.37;98701.75;7305835;19;129662;-38
2023/01/13 09:57:39;;;;;;;31.90;3.28;;;;;;;23.60;56.58;98707.59;7306550;19;129507;-38
2023/01/13 10:00:10;;;;;;;23.90;2.43;;;;;;;23.66;55.77;98702.47;7307242;19;129419;-39
2023/01/13 10:03:00;;;;;;;39.45;3.75;;;;;;;23.69;55.43;98702.09;7302995;19;130070;-38
2023/01/13 10:05:43;;;;;;;37.25;4.30;;;;;;;23.75;56.07;98706.63;7303048;19;130001;-39
2023/01/13 10:08:20;;;;;;;29.70;3.22;;;;;;;23.76;55.89;98703.03;7304951;19;130313;-40
2023/01/13 10:10:48;;;;;;;36.63;3.53;;;;;;;23.72;55.89;98706.16;7306943;19;129992;-38
2023/01/13 10:13:22;;;;;;;44.08;4.40;;;;;;;23.69;56.28;98696.03;7306387;19;129635;-36
2023/01/13 10:15:55;;;;;;;25.65;2.50;;;;;;;23.54;56.37;98709.09;7305963;19;132469;-38
2023/01/13 10:18:32;;;;;;;30.98;3.08;;;;;;;23.45;56.33;98704.91;7305641;19;129636;-37
2023/01/13 10:21:23;;;;;;;23.88;2.58;;;;;;;23.40;56.66;98712.47;7305002;19;129362;-41
2023/01/13 10:24:19;;;;;;;22.73;2.30;;;;;;;23.24;57.41;98708.06;7305480;19;130033;-36
2023/01/13 10:26:59;;;;;;;30.98;3.40;;;;;;;23.22;57.89;98696.13;7301377;19;130384;-37
2023/01/13 10:29:27;;;;;;;33.60;3.33;;;;;;;23.17;57.96;98690.59;7306608;19;130008;-37
2023/01/13 10:31:54;;;;;;;36.53;3.58;;;;;;;23.26;57.08;98679.06;7303705;19;129925;-40
2023/01/13 10:34:22;;;;;;;38.08;3.83;;;;;;;23.26;57.26;98673.81;7301727;19;129472;-40
2023/01/13 10:36:58;;;;;;;35.50;3.63;;;;;;;23.31;57.54;98668.91;7303782;19;131671;-38
2023/01/13 10:39:24;;;;;;;35.85;3.72;;;;;;;23.44;56.75;98660.44;7304029;19;130890;-39
2023/01/13 10:42:00;;;;;;;26.77;2.77;;;;;;;23.46;56.70;98659.28;7303884;19;129417;-37
2023/01/13 10:44:26;;;;;;;27.50;2.73;;;;;;;23.51;56.80;98651.72;7303027;19;130229;-39
2023/01/13 10:46:57;;;;;;;44.47;4.28;;;;;;;23.56;56.61;98659.88;7301198;19;130313;-36
2023/01/13 10:49:34;;;;;;;50.55;4.53;;;;;;;23.67;56.05;98648.97;7297404;19;131028;-39
2023/01/13 10:52:01;;;;;;;41.88;4.80;;;;;;;23.70;56.27;98645.97;7303220;19;129586;-40
2023/01/13 10:54:27;;;;;;;43.05;4.18;;;;;;;23.80;55.60;98637.91;7304604;19;130232;-38
2023/01/13 10:57:22;;;;;;;34.40;3.37;;;;;;;23.84;55.89;98637.34;7301172;19;130548;-39
2023/01/13 10:59:49;;;;;;;24.55;2.35;;;;;;;23.89;56.17;98640.25;7304297;19;129108;-38
2023/01/13 11:02:25;;;;;;;51.00;4.97;;;;;;;23.88;55.42;98630.75;7301837;19;129267;-37
2023/01/13 11:04:53;;;;;;;43.70;4.20;;;;;;;23.75;56.37;98627.91;7303541;19;129243;-37
2023/01/13 11:07:24;;;;;;;35.28;3.58;;;;;;;23.70;56.79;98632.88;7303605;19;129775;-38
2023/01/13 11:10:07;;;;;;;55.75;6.03;;;;;;;23.65;56.83;98632.56;7297405;19;129818;-37
2023/01/13 11:12:40;;;;;;;21.13;2.28;;;;;;;23.50;56.42;98629.09;7299734;19;130833;-38
2023/01/13 11:15:12;;;;;;;46.83;5.53;;;;;;;23.42;57.14;98651.94;7301495;19;129735;-39
2023/01/13 11:17:45;;;;;;;32.33;3.13;;;;;;;23.20;57.39;98653.53;7302829;19;129820;-39
2023/01/13 11:20:10;;;;;;;26.67;2.53;;;;;;;23.25;57.99;98672.19;7297741;19;129525;-39
2023/01/13 11:22:50;;;;;;;39.63;4.20;;;;;;;23.24;57.81;98667.91;7301561;19;129533;-37
2023/01/13 11:25:30;;;;;;;54.17;7.00;;;;;;;23.30;57.89;98656.78;7298601;19;130790;-39
2023/01/13 11:28:08;;;;;;;47.15;4.20;;;;;;;23.37;57.14;98649.81;7300948;19;130849;-40
2023/01/13 11:30:41;;;;;;;38.05;3.55;;;;;;;23.39;57.15;98658.34;7295736;19;129478;-38
2023/01/13 11:33:25;;;;;;;47.65;4.60;;;;;;;23.40;57.03;98660.00;7303504;19;129580;-37
2023/01/13 11:35:57;;;;;;;38.65;3.70;;;;;;;23.54;57.14;98656.59;7301771;19;129514;-40
2023/01/13 11:38:28;;;;;;;32.30;3.03;;;;;;;23.45;56.80;98641.09;7304983;19;129724;-40
2023/01/13 11:40:59;;;;;;;36.40;3.55;;;;;;;23.69;56.67;98660.13;7303884;19;129133;-37
2023/01/13 11:43:33;;;;;;;27.63;2.70;;;;;;;23.71;57.07;98670.44;7305009;19;129233;-39
2023/01/13 11:46:00;;;;;;;35.53;3.63;;;;;;;23.80;56.25;98662.31;7298904;19;129131;-37
2023/01/13 11:48:31;;;;;;;27.42;2.83;;;;;;;23.82;56.06;98681.34;7305469;19;129739;-40
2023/01/13 11:51:11;;;;;;;43.22;4.32;;;;;;;23.79;56.46;98680.88;7302015;19;129713;-39
2023/01/13 11:54:01;;;;;;;26.42;2.65;;;;;;;23.92;55.64;98678.47;7303818;19;129403;-39
2023/01/13 11:56:44;;;;;;;56.10;6.30;;;;;;;23.89;55.38;98674.41;7298277;19;129203;-39
2023/01/13 11:59:35;;;;;;;31.05;3.38;;;;;;;23.85;55.43;98675.72;7298567;19;129663;-37
2023/01/13 12:02:18;;;;;;;33.70;3.67;;;;;;;23.77;55.58;98667.91;7298877;19;129240;-37
2023/01/13 12:04:57;;;;;;;41.72;4.82;;;;;;;23.62;56.00;98677.53;7302220;19;128890;-40
2023/01/13 12:07:42;;;;;;;41.45;4.03;;;;;;;23.52;56.68;98669.06;7301217;19;130041;-38
2023/01/13 12:10:32;;;;;;;13.18;1.58;;;;;;;23.39;57.01;98634.75;7302844;19;130582;-38
2023/01/13 12:13:21;;;;;;;29.73;3.22;;;;;;;23.29;57.22;98618.41;7302969;19;129101;-37
2023/01/13 12:15:49;;;;;;;90.97;10.27;;;;;;;23.20;57.42;98648.28;7290746;19;130204;-36
2023/01/13 12:18:24;;;;;;;24.15;2.58;;;;;;;23.30;57.38;98655.97;7299935;19;130156;-39